Time;durP1;ratioP1;P1;durP2;ratioP2;P2;SDS_P1;SDS_P2;PMS_P1;PMS_P2;Temp;Humidity;BMP_temperature;BMP_pressure;BME280_temperature;BME280_humidity;BME280_pressure;Samples;Min_cycle;Max_cycle;Signal;HPM_P1;HPM_P2
2024/01/02 00:01:26;;;;;;;13.45;6.03;;;0.70;99.90;;;;;;4966062;28;20520;-61
2024/01/02 00:03:53;;;;;;;12.05;5.75;;;0.60;99.90;;;;;;4955212;28;20401;-61
2024/01/02 00:06:20;;;;;;;11.55;6.18;;;0.60;99.90;;;;;;4962279;28;20798;-58
2024/01/02 00:08:47;;;;;;;14.15;5.63;;;0.60;99.90;;;;;;4948280;28;20035;-61
2024/01/02 00:11:13;;;;;;;11.23;6.32;;;0.50;99.90;;;;;;4942738;28;20105;-60
2024/01/02 00:13:40;;;;;;;14.13;5.90;;;0.50;99.90;;;;;;4971338;28;20411;-61
2024/01/02 00:16:07;;;;;;;16.10;6.57;;;0.50;99.90;;;;;;4956070;28;20050;-62
2024/01/02 00:18:34;;;;;;;15.85;6.78;;;0.50;99.90;;;;;;4954451;28;20496;-62
2024/01/02 00:21:02;;;;;;;13.75;6.00;;;0.50;99.90;;;;;;4969006;28;20053;-62
2024/01/02 00:23:29;;;;;;;12.63;6.05;;;0.60;99.90;;;;;;4939856;28;20059;-59
2024/01/02 00:25:56;;;;;;;16.80;6.63;;;0.60;99.90;;;;;;4969361;28;20442;-60
2024/01/02 00:28:23;;;;;;;13.13;6.47;;;0.50;99.90;;;;;;4962211;28;20518;-61
2024/01/02 00:30:50;;;;;;;13.77;6.85;;;0.50;99.90;;;;;;4947139;28;20039;-63
2024/01/02 00:33:17;;;;;;;12.73;6.05;;;0.50;99.90;;;;;;4967341;28;20062;-62
2024/01/02 00:35:44;;;;;;;10.77;5.63;;;0.50;99.90;;;;;;4965701;28;20039;-64
2024/01/02 00:38:11;;;;;;;13.70;6.20;;;0.60;99.90;;;;;;4952295;28;20055;-61
2024/01/02 00:40:38;;;;;;;11.50;5.28;;;0.60;99.90;;;;;;4972222;28;20097;-60
2024/01/02 00:43:05;;;;;;;15.45;4.63;;;0.60;99.90;;;;;;4951584;29;20051;-60
2024/01/02 00:45:32;;;;;;;10.00;5.72;;;0.60;99.90;;;;;;4969692;28;20420;-59
2024/01/02 00:47:59;;;;;;;13.25;5.28;;;0.60;99.90;;;;;;4955483;28;20043;-59
2024/01/02 00:50:26;;;;;;;16.10;5.22;;;0.60;99.90;;;;;;4949583;29;20488;-60
2024/01/02 00:52:54;;;;;;;11.48;5.50;;;0.60;99.90;;;;;;4966146;28;20061;-60
2024/01/02 00:55:21;;;;;;;11.00;5.05;;;0.60;99.90;;;;;;4969329;28;20432;-57
2024/01/02 00:57:48;;;;;;;8.65;4.05;;;0.60;99.90;;;;;;4953599;28;20403;-60
2024/01/02 01:00:15;;;;;;;9.88;5.20;;;0.60;99.90;;;;;;4951641;28;20050;-60
2024/01/02 01:02:41;;;;;;;10.68;4.78;;;0.60;99.90;;;;;;4963392;28;20093;-61
2024/01/02 01:05:08;;;;;;;9.68;4.25;;;0.70;99.90;;;;;;4971257;28;20130;-60
2024/01/02 01:07:35;;;;;;;10.93;4.22;;;0.70;99.90;;;;;;4963328;28;20050;-60
2024/01/02 01:10:02;;;;;;;8.75;4.55;;;0.80;99.90;;;;;;4962417;28;20598;-60
2024/01/02 01:12:29;;;;;;;9.52;4.22;;;0.80;99.90;;;;;;4950182;29;20106;-59
2024/01/02 01:14:56;;;;;;;11.55;4.80;;;0.80;99.90;;;;;;4961919;28;20051;-61
2024/01/02 01:17:23;;;;;;;9.35;4.38;;;0.70;99.90;;;;;;4972103;28;20117;-60
2024/01/02 01:19:50;;;;;;;11.88;5.13;;;0.70;99.90;;;;;;4971968;28;20073;-60
2024/01/02 01:22:17;;;;;;;12.93;5.65;;;0.70;99.90;;;;;;4957856;28;20047;-60
2024/01/02 01:24:44;;;;;;;;;;;0.60;99.90;;;;;;4962176;28;20063;-60
2024/01/02 01:27:11;;;;;;;12.60;5.38;;;0.50;99.90;;;;;;4971845;28;19953;-60
2024/01/02 01:29:38;;;;;;;16.08;5.88;;;0.50;99.90;;;;;;4947518;28;20134;-60
2024/01/02 01:32:05;;;;;;;11.80;5.60;;;0.40;99.90;;;;;;4968774;28;20048;-60
2024/01/02 01:34:32;;;;;;;;;;;0.40;99.90;;;;;;4944118;28;20043;-60
2024/01/02 01:36:59;;;;;;;12.98;5.32;;;0.40;99.90;;;;;;4953780;28;19984;-59
2024/01/02 01:39:25;;;;;;;7.75;3.90;;;0.40;99.90;;;;;;4971094;28;20046;-58
2024/01/02 01:41:53;;;;;;;14.20;5.05;;;0.40;99.90;;;;;;4972575;28;20035;-60
2024/01/02 01:44:20;;;;;;;11.13;5.10;;;0.40;99.90;;;;;;4972226;28;20057;-59
2024/01/02 01:46:47;;;;;;;12.38;5.28;;;0.40;99.90;;;;;;4954733;28;20404;-58
2024/01/02 01:49:15;;;;;;;8.00;4.22;;;0.40;99.90;;;;;;4948674;28;20079;-60
2024/01/02 01:51:43;;;;;;;9.85;4.45;;;0.40;99.90;;;;;;4951566;28;20042;-60
2024/01/02 01:54:14;;;;;;;11.20;5.22;;;0.40;99.90;;;;;;4953885;28;20149;-58
2024/01/02 01:56:42;;;;;;;10.20;5.07;;;0.40;99.90;;;;;;4951492;28;20110;-58
2024/01/02 01:59:13;;;;;;;7.55;4.05;;;0.40;99.90;;;;;;4954891;28;20039;-60
2024/01/02 02:01:42;;;;;;;9.05;4.50;;;0.40;99.90;;;;;;4954022;28;20142;-59
2024/01/02 02:04:10;;;;;;;11.13;4.47;;;0.40;99.90;;;;;;4960204;28;20500;-59
2024/01/02 02:06:36;;;;;;;7.30;3.92;;;0.40;99.90;;;;;;4949992;28;20077;-59
2024/01/02 02:09:04;;;;;;;11.63;5.15;;;0.50;99.90;;;;;;4954465;28;20050;-58
2024/01/02 02:11:33;;;;;;;9.13;4.38;;;0.50;99.90;;;;;;4953839;28;20488;-59
2024/01/02 02:14:00;;;;;;;10.27;4.32;;;0.40;99.90;;;;;;4954789;28;20054;-60
2024/01/02 02:16:27;;;;;;;8.75;4.15;;;0.40;99.90;;;;;;4954409;28;20049;-59
2024/01/02 02:18:55;;;;;;;10.73;4.45;;;0.40;99.90;;;;;;4946389;28;20042;-60
2024/01/02 02:21:22;;;;;;;8.15;4.07;;;0.40;99.90;;;;;;4954531;28;20047;-60
2024/01/02 02:23:49;;;;;;;7.78;4.55;;;0.40;99.90;;;;;;4953713;28;20051;-60
2024/01/02 02:26:15;;;;;;;9.63;4.30;;;0.40;99.90;;;;;;4970433;28;20518;-59
2024/01/02 02:28:42;;;;;;;7.63;4.15;;;0.30;99.90;;;;;;4946655;29;20059;-60
2024/01/02 02:31:09;;;;;;;7.78;3.78;;;0.40;99.90;;;;;;4956873;28;20133;-60
2024/01/02 02:33:36;;;;;;;10.48;3.90;;;0.30;99.90;;;;;;4975660;28;20055;-60
2024/01/02 02:36:03;;;;;;;9.18;3.47;;;0.30;99.90;;;;;;4974439;28;20047;-59
2024/01/02 02:38:30;;;;;;;6.93;3.45;;;0.30;99.90;;;;;;4953686;28;20122;-60
2024/01/02 02:40:57;;;;;;;7.07;3.42;;;0.30;99.90;;;;;;4973791;28;20106;-59
2024/01/02 02:43:24;;;;;;;7.13;3.75;;;0.30;99.90;;;;;;4953341;29;20053;-59
2024/01/02 02:45:51;;;;;;;7.95;3.78;;;0.30;99.90;;;;;;4963062;28;20047;-59
2024/01/02 02:48:18;;;;;;;7.72;2.38;;;0.30;99.90;;;;;;4967766;28;20412;-60
2024/01/02 02:50:45;;;;;;;9.25;4.00;;;0.40;99.90;;;;;;4954987;28;20070;-60
2024/01/02 02:53:12;;;;;;;7.72;3.97;;;0.40;99.90;;;;;;4973046;28;20051;-60
2024/01/02 02:55:39;;;;;;;6.93;3.40;;;0.40;99.90;;;;;;4952443;28;20090;-58
2024/01/02 02:58:05;;;;;;;7.22;3.67;;;0.40;99.90;;;;;;4949044;28;20129;-59
2024/01/02 03:00:34;;;;;;;;;;;0.40;99.90;;;;;;4975611;28;20043;-60
2024/01/02 03:03:02;;;;;;;10.68;3.60;;;0.40;99.90;;;;;;4974852;28;20422;-60
2024/01/02 03:05:29;;;;;;;9.15;3.60;;;0.50;99.90;;;;;;4974182;28;20431;-57
2024/01/02 03:07:57;;;;;;;9.25;3.83;;;0.40;99.90;;;;;;4957722;28;20134;-58
2024/01/02 03:10:24;;;;;;;12.45;3.88;;;0.40;99.90;;;;;;4966104;28;20395;-60
2024/01/02 03:12:51;;;;;;;7.00;3.20;;;0.40;99.90;;;;;;4971705;28;20085;-60
2024/01/02 03:15:18;;;;;;;9.13;3.65;;;0.50;99.90;;;;;;4974530;28;20039;-60
2024/01/02 03:17:45;;;;;;;6.47;3.67;;;0.40;99.90;;;;;;4974841;28;20047;-59
2024/01/02 03:20:12;;;;;;;6.60;2.95;;;0.50;99.90;;;;;;4970114;28;20038;-60
2024/01/02 03:22:39;;;;;;;6.07;3.20;;;0.40;99.90;;;;;;4974859;28;20725;-60
2024/01/02 03:25:06;;;;;;;10.82;3.78;;;0.40;99.90;;;;;;4973487;28;20077;-58
2024/01/02 03:27:33;;;;;;;6.78;3.53;;;0.50;99.90;;;;;;4974419;28;20109;-58
2024/01/02 03:29:59;;;;;;;7.28;3.75;;;0.50;99.90;;;;;;4974436;28;20031;-61
2024/01/02 03:32:27;;;;;;;6.70;3.45;;;0.50;99.90;;;;;;4973345;28;20038;-59
2024/01/02 03:34:54;;;;;;;7.85;3.10;;;0.50;99.90;;;;;;4966397;28;20133;-60
2024/01/02 03:37:21;;;;;;;6.47;3.17;;;0.50;99.90;;;;;;4973317;28;20035;-59
2024/01/02 03:39:48;;;;;;;5.88;3.13;;;0.50;99.90;;;;;;4973282;28;20054;-57
2024/01/02 03:42:15;;;;;;;7.28;3.63;;;0.40;99.90;;;;;;4966255;28;20042;-58
2024/01/02 03:44:41;;;;;;;7.97;3.30;;;0.40;99.90;;;;;;4974117;28;20053;-60
2024/01/02 03:47:08;;;;;;;7.95;3.13;;;0.40;99.90;;;;;;4966370;28;20039;-59
2024/01/02 03:49:35;;;;;;;7.22;2.97;;;0.40;99.90;;;;;;4968452;28;20105;-59
2024/01/02 03:52:02;;;;;;;5.97;2.95;;;0.40;99.90;;;;;;4973186;28;20054;-60
2024/01/02 03:54:29;;;;;;;5.20;2.80;;;0.40;99.90;;;;;;4967983;28;20041;-60
2024/01/02 03:56:56;;;;;;;5.57;2.97;;;0.40;99.90;;;;;;4964722;28;20502;-59
2024/01/02 03:59:23;;;;;;;5.10;2.55;;;0.40;99.90;;;;;;4966459;28;20038;-60
2024/01/02 04:01:50;;;;;;;4.10;2.63;;;0.40;99.90;;;;;;4974060;28;20043;-60
2024/01/02 04:04:16;;;;;;;6.50;2.72;;;0.40;99.90;;;;;;4965293;28;20391;-59
2024/01/02 04:06:43;;;;;;;5.00;2.47;;;0.40;99.90;;;;;;4974049;28;20031;-59
2024/01/02 04:09:11;;;;;;;7.65;2.75;;;0.40;99.90;;;;;;4965413;28;20059;-60
2024/01/02 04:11:37;;;;;;;5.78;2.50;;;0.40;99.90;;;;;;4968204;28;20589;-60
2024/01/02 04:14:04;;;;;;;5.65;2.90;;;0.50;99.90;;;;;;4972300;28;20090;-59
2024/01/02 04:16:31;;;;;;;5.05;2.83;;;0.50;99.90;;;;;;4970352;28;20101;-59
2024/01/02 04:18:58;;;;;;;7.90;3.47;;;0.50;99.90;;;;;;4973289;28;20047;-59
2024/01/02 04:21:25;;;;;;;5.13;2.60;;;0.50;99.90;;;;;;4973851;28;20499;-60
2024/01/02 04:23:51;;;;;;;6.38;2.90;;;0.60;99.90;;;;;;4974087;28;20049;-59
2024/01/02 04:26:18;;;;;;;5.82;2.88;;;0.60;99.90;;;;;;4973154;28;20073;-60
2024/01/02 04:28:45;;;;;;;6.30;2.97;;;0.60;99.90;;;;;;4973680;28;20481;-60
2024/01/02 04:31:12;;;;;;;2.97;1.73;;;0.60;99.90;;;;;;4971466;28;20046;-59
2024/01/02 04:33:39;;;;;;;5.88;2.85;;;0.60;99.90;;;;;;4967665;28;20078;-60
2024/01/02 04:36:06;;;;;;;6.55;3.10;;;0.60;99.90;;;;;;4954452;28;20223;-58
2024/01/02 04:38:33;;;;;;;10.02;2.83;;;0.60;99.90;;;;;;4964374;28;20093;-59
2024/01/02 04:41:00;;;;;;;3.55;2.55;;;0.60;99.90;;;;;;4965519;28;20043;-59
2024/01/02 04:43:27;;;;;;;6.82;2.92;;;0.60;99.90;;;;;;4965513;28;20050;-58
2024/01/02 04:45:54;;;;;;;5.65;2.50;;;0.70;99.90;;;;;;4969988;28;20066;-59
2024/01/02 04:48:21;;;;;;;7.70;2.70;;;0.70;99.90;;;;;;4965423;28;20496;-57
2024/01/02 04:50:48;;;;;;;5.28;3.03;;;0.70;99.90;;;;;;4965986;28;20054;-59
2024/01/02 04:53:15;;;;;;;7.22;2.60;;;0.70;99.90;;;;;;4971263;28;20129;-60
2024/01/02 04:55:42;;;;;;;5.18;2.83;;;0.70;99.90;;;;;;4966841;28;20055;-60
2024/01/02 04:58:09;;;;;;;5.55;3.03;;;0.70;99.90;;;;;;4972224;28;20039;-60
2024/01/02 05:00:36;;;;;;;5.47;2.78;;;0.70;99.90;;;;;;4966829;28;20035;-60
2024/01/02 05:03:03;;;;;;;6.18;2.65;;;0.60;99.90;;;;;;4961339;28;20377;-59
2024/01/02 05:05:30;;;;;;;5.45;2.58;;;0.60;99.90;;;;;;4968243;28;20097;-59
2024/01/02 05:07:58;;;;;;;6.82;2.60;;;0.60;99.90;;;;;;4966385;28;20535;-60
2024/01/02 05:10:25;;;;;;;7.18;3.00;;;0.50;99.90;;;;;;4962921;28;20049;-57
2024/01/02 05:12:51;;;;;;;5.05;2.05;;;0.50;99.90;;;;;;4965621;28;20035;-57
2024/01/02 05:15:18;;;;;;;6.35;3.20;;;0.50;99.90;;;;;;4962496;28;20043;-60
2024/01/02 05:17:46;;;;;;;;;;;0.50;99.90;;;;;;4967943;28;20051;-58
2024/01/02 05:20:13;;;;;;;8.30;2.40;;;0.50;99.90;;;;;;4972494;28;20387;-60
2024/01/02 05:22:40;;;;;;;7.00;3.15;;;0.60;99.90;;;;;;4968989;28;20452;-60
2024/01/02 05:25:08;;;;;;;7.25;2.88;;;0.60;99.90;;;;;;4956178;28;20058;-59
2024/01/02 05:27:35;;;;;;;6.05;2.30;;;0.60;99.90;;;;;;4968765;28;20046;-60
2024/01/02 05:30:02;;;;;;;5.65;2.10;;;0.70;99.90;;;;;;4972567;28;20436;-59
2024/01/02 05:32:29;;;;;;;;;;;0.80;99.90;;;;;;4970948;28;20484;-59
2024/01/02 05:34:56;;;;;;;5.55;3.05;;;0.90;99.90;;;;;;4972860;28;20391;-60
2024/01/02 05:37:23;;;;;;;4.88;2.40;;;0.90;99.90;;;;;;4971762;28;20586;-60
2024/01/02 05:39:49;;;;;;;4.88;2.30;;;0.90;99.90;;;;;;4972597;28;20049;-58
2024/01/02 05:42:16;;;;;;;6.20;2.47;;;0.90;99.90;;;;;;4964588;28;20054;-58
2024/01/02 05:44:43;;;;;;;5.30;2.17;;;0.90;99.90;;;;;;4972179;28;20097;-60
2024/01/02 05:47:10;;;;;;;4.40;2.60;;;1.00;99.90;;;;;;4956171;28;20043;-58
2024/01/02 05:49:37;;;;;;;7.00;2.80;;;0.90;99.90;;;;;;4971354;28;20550;-59
2024/01/02 05:52:04;;;;;;;6.68;2.45;;;0.90;99.90;;;;;;4972551;28;20068;-60
2024/01/02 05:54:32;;;;;;;6.40;2.55;;;0.90;99.90;;;;;;4963724;28;20484;-60
2024/01/02 05:56:59;;;;;;;5.35;2.90;;;0.90;99.90;;;;;;4972241;28;20053;-57
2024/01/02 05:59:25;;;;;;;4.65;2.60;;;0.90;99.90;;;;;;4971246;28;20051;-59
2024/01/02 06:01:52;;;;;;;4.53;2.50;;;0.90;99.90;;;;;;4967618;28;20550;-60
2024/01/02 06:04:19;;;;;;;7.85;3.15;;;0.90;99.90;;;;;;4975459;28;20121;-60
2024/01/02 06:06:46;;;;;;;8.40;3.67;;;0.90;99.90;;;;;;4975201;28;20043;-58
2024/01/02 06:09:13;;;;;;;7.50;3.38;;;0.90;99.90;;;;;;4967583;28;20444;-59
2024/01/02 06:11:40;;;;;;;5.40;2.40;;;0.90;99.90;;;;;;4969460;28;20404;-59
2024/01/02 06:14:08;;;;;;;7.07;2.90;;;1.00;99.90;;;;;;4968008;28;20035;-59
2024/01/02 06:16:35;;;;;;;4.78;2.78;;;1.00;99.90;;;;;;4976193;28;20483;-58
2024/01/02 06:19:02;;;;;;;5.28;2.78;;;1.00;99.90;;;;;;4975763;28;20109;-59
2024/01/02 06:21:29;;;;;;;2.70;2.22;;;1.00;99.90;;;;;;4975697;28;20049;-59
2024/01/02 06:23:56;;;;;;;5.78;2.70;;;1.00;99.90;;;;;;4958491;28;20491;-58
2024/01/02 06:26:23;;;;;;;6.15;2.65;;;1.00;99.90;;;;;;4966719;28;20567;-60
2024/01/02 06:28:50;;;;;;;4.95;2.42;;;1.00;99.90;;;;;;4975459;28;20034;-60
2024/01/02 06:31:24;;;;;;;4.13;2.05;;;1.10;99.90;;;;;;4967734;28;20064;-58
2024/01/02 06:33:51;;;;;;;5.03;2.65;;;1.00;99.90;;;;;;4968895;28;20046;-58
2024/01/02 06:36:18;;;;;;;7.57;3.30;;;1.00;99.90;;;;;;4975786;28;20070;-60
2024/01/02 06:38:45;;;;;;;6.40;2.63;;;1.00;99.90;;;;;;4975726;28;20488;-57
2024/01/02 06:41:12;;;;;;;5.45;3.00;;;0.90;99.90;;;;;;4974642;28;20042;-58
2024/01/02 06:43:39;;;;;;;3.30;1.85;;;0.90;99.90;;;;;;4967560;28;20045;-59
2024/01/02 06:46:06;;;;;;;7.13;3.15;;;0.90;99.90;;;;;;4967079;28;20065;-59
2024/01/02 06:48:34;;;;;;;5.53;3.08;;;0.90;99.90;;;;;;4971872;28;20039;-57
2024/01/02 06:51:01;;;;;;;8.57;3.45;;;0.90;99.90;;;;;;4974823;28;20431;-59
2024/01/02 06:53:28;;;;;;;4.10;2.30;;;0.90;99.90;;;;;;4972133;28;20125;-58
2024/01/02 06:55:55;;;;;;;5.35;2.67;;;1.00;99.90;;;;;;4969727;28;20448;-57
2024/01/02 06:58:22;;;;;;;5.60;2.72;;;1.10;99.90;;;;;;4966389;28;20051;-59
2024/01/02 07:00:49;;;;;;;4.32;2.15;;;1.10;99.90;;;;;;4966913;28;20077;-59
2024/01/02 07:03:17;;;;;;;3.35;1.73;;;1.10;99.90;;;;;;4974705;28;20058;-60
2024/01/02 07:05:44;;;;;;;6.13;2.63;;;1.20;99.90;;;;;;4968177;28;20081;-60
2024/01/02 07:08:11;;;;;;;7.00;2.50;;;1.20;99.90;;;;;;4967006;28;20126;-60
2024/01/02 07:10:37;;;;;;;4.50;1.98;;;1.20;99.90;;;;;;4975100;28;20046;-60
2024/01/02 07:13:04;;;;;;;3.65;1.85;;;1.30;99.90;;;;;;4975084;28;20035;-59
2024/01/02 07:15:31;;;;;;;6.45;2.30;;;1.30;99.90;;;;;;4974732;28;20053;-59
2024/01/02 07:17:58;;;;;;;5.10;2.28;;;1.30;99.90;;;;;;4973637;28;20037;-61
2024/01/02 07:20:25;;;;;;;;;;;1.30;99.90;;;;;;4974804;28;20049;-60
2024/01/02 07:22:52;;;;;;;6.72;3.13;;;1.30;99.90;;;;;;4969146;28;20442;-61
2024/01/02 07:25:19;;;;;;;5.93;3.10;;;1.30;99.90;;;;;;4973550;28;20042;-60
2024/01/02 07:27:46;;;;;;;8.10;3.70;;;1.30;99.90;;;;;;4972856;28;20484;-59
2024/01/02 07:30:13;;;;;;;6.47;2.63;;;1.30;99.90;;;;;;4971715;28;20047;-60
2024/01/02 07:32:39;;;;;;;5.45;2.90;;;1.30;99.90;;;;;;4974278;28;20043;-60
2024/01/02 07:35:07;;;;;;;4.97;2.88;;;1.30;99.90;;;;;;4966734;28;20039;-60
2024/01/02 07:37:33;;;;;;;6.72;3.08;;;1.40;99.90;;;;;;4960198;28;20043;-60
2024/01/02 07:40:00;;;;;;;6.13;3.25;;;1.50;99.90;;;;;;4974520;28;20039;-60
2024/01/02 07:42:27;;;;;;;7.15;2.78;;;1.60;99.90;;;;;;4973587;28;20046;-60
2024/01/02 07:44:54;;;;;;;4.20;2.15;;;1.60;99.90;;;;;;4973511;28;20042;-60
2024/01/02 07:47:21;;;;;;;;;;;1.60;99.90;;;;;;4974200;28;20377;-60
2024/01/02 07:49:48;;;;;;;10.75;4.30;;;1.60;99.90;;;;;;4973360;28;19926;-60
2024/01/02 07:52:15;;;;;;;5.85;2.53;;;1.60;99.90;;;;;;4974661;28;20067;-61
2024/01/02 07:54:41;;;;;;;6.32;3.58;;;1.70;99.90;;;;;;4973274;28;20118;-59
2024/01/02 07:57:08;;;;;;;6.63;3.15;;;1.70;99.90;;;;;;4974491;28;20051;-60
2024/01/02 07:59:37;;;;;;;8.90;2.90;;;1.70;99.90;;;;;;4970141;28;20089;-60
2024/01/02 08:02:04;;;;;;;;;;;1.80;99.90;;;;;;4964394;28;20031;-58
2024/01/02 08:04:31;;;;;;;12.15;3.22;;;1.90;99.90;;;;;;4973846;28;19922;-59
2024/01/02 08:06:59;;;;;;;3.17;1.75;;;1.90;99.90;;;;;;4974211;28;20053;-59
2024/01/02 08:09:26;;;;;;;4.55;2.50;;;2.00;99.90;;;;;;4972865;28;20484;-58
2024/01/02 08:11:53;;;;;;;4.43;2.20;;;2.00;99.90;;;;;;4973498;28;20046;-59
2024/01/02 08:14:20;;;;;;;3.22;1.98;;;2.10;99.90;;;;;;4972867;28;20043;-60
2024/01/02 08:16:47;;;;;;;5.57;1.80;;;2.20;99.90;;;;;;4968378;28;20073;-60
2024/01/02 08:19:14;;;;;;;3.75;2.15;;;2.20;99.90;;;;;;4973508;28;20126;-61
2024/01/02 08:21:41;;;;;;;;;;;2.20;99.90;;;;;;4966878;28;20074;-59
2024/01/02 08:24:08;;;;;;;6.60;1.77;;;2.30;99.90;;;;;;4972914;28;20294;-60
2024/01/02 08:26:36;;;;;;;4.65;2.20;;;2.30;99.90;;;;;;4970765;28;20043;-60
2024/01/02 08:29:03;;;;;;;4.00;1.92;;;2.30;99.90;;;;;;4973154;28;20510;-60
2024/01/02 08:31:30;;;;;;;6.75;2.88;;;2.20;99.90;;;;;;4966378;28;20058;-60
2024/01/02 08:33:57;;;;;;;6.20;2.13;;;2.30;99.90;;;;;;4968605;28;20066;-60
2024/01/02 08:36:24;;;;;;;5.68;2.33;;;2.30;99.90;;;;;;4969101;28;20069;-60
2024/01/02 08:38:50;;;;;;;7.55;1.92;;;2.40;99.90;;;;;;4963893;28;20058;-58
2024/01/02 08:41:17;;;;;;;7.68;2.97;;;2.50;99.90;;;;;;4973609;28;20090;-59
2024/01/02 08:43:44;;;;;;;6.95;3.17;;;2.60;99.90;;;;;;4965469;28;20074;-59
2024/01/02 08:46:11;;;;;;;3.28;1.88;;;2.70;99.90;;;;;;4972640;28;20038;-59
2024/01/02 08:48:38;;;;;;;6.00;2.15;;;2.80;99.90;;;;;;4955852;28;20046;-60
2024/01/02 08:51:05;;;;;;;7.40;2.58;;;2.80;99.90;;;;;;4967419;28;20038;-60
2024/01/02 08:53:32;;;;;;;3.53;1.58;;;2.80;99.90;;;;;;4970028;28;20392;-60
2024/01/02 08:55:59;;;;;;;6.00;2.00;;;2.90;99.90;;;;;;4969260;28;20042;-59
2024/01/02 08:58:26;;;;;;;5.50;2.58;;;2.90;99.90;;;;;;4965392;28;20125;-59
2024/01/02 09:00:53;;;;;;;4.50;1.90;;;2.90;99.90;;;;;;4972007;28;20035;-58
2024/01/02 09:03:19;;;;;;;2.63;1.45;;;3.00;99.90;;;;;;4973106;28;20039;-56
2024/01/02 09:05:47;;;;;;;3.53;1.77;;;3.00;99.90;;;;;;4964471;28;20039;-60
2024/01/02 09:08:15;;;;;;;5.13;2.25;;;3.00;99.90;;;;;;4954917;28;20042;-59
2024/01/02 09:10:43;;;;;;;;;;;3.00;99.90;;;;;;4964964;28;20374;-59
2024/01/02 09:13:11;;;;;;;10.02;3.45;;;2.90;99.90;;;;;;4973178;28;19932;-60
2024/01/02 09:15:39;;;;;;;5.70;3.42;;;2.90;99.90;;;;;;4970457;28;20059;-60
2024/01/02 09:18:06;;;;;;;6.47;2.42;;;2.90;99.90;;;;;;4969069;28;20054;-58
2024/01/02 09:20:34;;;;;;;7.43;2.40;;;2.70;99.90;;;;;;4972119;28;20136;-59
2024/01/02 09:23:02;;;;;;;6.68;2.85;;;2.70;99.90;;;;;;4946638;28;20122;-58
2024/01/02 09:25:30;;;;;;;;;;;2.80;99.90;;;;;;4973044;28;20053;-60
2024/01/02 09:27:59;;;;;;;4.85;2.42;;;2.90;99.90;;;;;;4970269;28;19922;-58
2024/01/02 09:30:26;;;;;;;5.38;2.55;;;2.90;99.90;;;;;;4961737;28;20039;-58
2024/01/02 09:32:52;;;;;;;5.05;2.60;;;3.00;99.90;;;;;;4971816;28;20049;-58
2024/01/02 09:35:20;;;;;;;6.70;2.53;;;3.10;99.90;;;;;;4971847;28;20066;-60
2024/01/02 09:37:46;;;;;;;6.25;2.90;;;3.20;99.90;;;;;;4972112;28;20116;-56
2024/01/02 09:40:47;;;;;;;4.75;2.65;;;3.20;99.90;;;;;;4971421;28;20129;-59
2024/01/02 09:43:15;;;;;;;4.70;2.97;;;3.30;99.90;;;;;;4955085;28;20070;-61
2024/01/02 09:46:00;;;;;;;5.93;1.92;;;3.30;99.90;;;;;;4972026;28;20043;-59
2024/01/02 09:48:41;;;;;;;8.07;3.33;;;3.30;99.90;;;;;;4962750;28;20038;-60
2024/01/02 09:51:15;;;;;;;4.65;1.95;;;3.30;99.90;;;;;;4972163;28;20042;-60
2024/01/02 09:54:00;;;;;;;5.13;2.28;;;3.40;99.90;;;;;;4952479;28;20122;-60
2024/01/02 09:56:33;;;;;;;4.82;2.53;;;3.50;99.90;;;;;;4965872;28;20055;-57
2024/01/02 09:59:09;;;;;;;3.85;2.33;;;3.60;99.90;;;;;;4959823;28;20075;-60
2024/01/02 10:01:44;;;;;;;4.95;2.33;;;3.60;99.90;;;;;;4969201;28;20453;-58
2024/01/02 10:04:34;;;;;;;9.07;3.63;;;3.70;99.90;;;;;;4968455;28;20534;-58
2024/01/02 10:07:44;;;;;;;8.05;3.95;;;3.80;99.90;;;;;;4960840;28;20474;-57
2024/01/02 10:10:33;;;;;;;7.25;4.35;;;3.80;99.90;;;;;;4955021;28;20133;-58
2024/01/02 10:13:05;;;;;;;6.15;2.47;;;3.90;99.90;;;;;;4963108;28;20126;-58
2024/01/02 10:15:47;;;;;;;8.23;3.22;;;4.00;99.90;;;;;;4964151;28;20050;-58
2024/01/02 10:18:26;;;;;;;8.52;3.70;;;3.90;99.90;;;;;;4965507;28;20047;-57
2024/01/02 10:21:00;;;;;;;14.45;5.72;;;3.80;99.90;;;;;;4971152;28;20046;-58
2024/01/02 10:23:41;;;;;;;10.63;4.57;;;3.90;99.90;;;;;;4964950;28;20114;-58
2024/01/02 10:26:09;;;;;;;9.20;4.47;;;3.90;99.90;;;;;;4966822;28;20117;-58
2024/01/02 10:28:36;;;;;;;;;;;3.90;99.90;;;;;;4960502;28;20043;-59
2024/01/02 10:31:14;;;;;;;9.90;4.30;;;3.90;99.90;;;;;;4964809;28;19922;-58
2024/01/02 10:33:47;;;;;;;4.93;2.38;;;3.90;99.90;;;;;;4965993;28;20086;-58
2024/01/02 10:36:20;;;;;;;3.50;1.77;;;3.90;99.90;;;;;;4962459;28;20039;-57
2024/01/02 10:38:54;;;;;;;9.18;2.63;;;3.90;99.90;;;;;;4966024;28;20122;-57
2024/01/02 10:41:57;;;;;;;21.15;6.53;;;4.00;99.90;;;;;;4964561;28;20381;-58
2024/01/02 10:44:46;;;;;;;20.92;6.75;;;4.10;99.90;;;;;;4965028;28;20359;-60
2024/01/02 10:47:24;;;;;;;13.48;4.60;;;4.20;99.90;;;;;;4968322;28;20587;-58
2024/01/02 10:49:52;;;;;;;20.95;6.28;;;4.30;99.90;;;;;;4970574;28;20039;-59
2024/01/02 10:52:47;;;;;;;15.85;6.63;;;4.30;99.90;;;;;;4971203;28;20039;-58
2024/01/02 10:55:28;;;;;;;4.25;2.50;;;4.40;99.90;;;;;;4946666;28;20134;-59
2024/01/02 10:58:02;;;;;;;5.28;2.88;;;4.30;99.90;;;;;;4968973;28;20050;-57
2024/01/02 11:00:34;;;;;;;9.73;3.80;;;4.40;99.90;;;;;;4963358;28;20481;-58
2024/01/02 11:03:25;;;;;;;7.75;3.47;;;4.30;99.90;;;;;;4966132;28;20042;-58
2024/01/02 11:06:08;;;;;;;8.68;3.17;;;4.40;99.90;;;;;;4967108;28;20110;-56
2024/01/02 11:08:57;;;;;;;7.97;2.88;;;4.60;99.90;;;;;;4970378;28;20047;-58
2024/01/02 11:11:25;;;;;;;6.35;3.05;;;4.60;99.90;;;;;;4968755;28;20456;-58
2024/01/02 11:13:52;;;;;;;4.10;2.25;;;4.70;99.90;;;;;;4965513;28;20560;-58
2024/01/02 11:16:22;;;;;;;6.55;2.72;;;4.70;99.90;;;;;;4967663;28;20488;-58
2024/01/02 11:18:56;;;;;;;6.03;2.55;;;4.70;99.90;;;;;;4963462;28;20051;-58
2024/01/02 11:21:33;;;;;;;7.25;2.40;;;4.80;99.90;;;;;;4964997;28;20078;-56
2024/01/02 11:24:06;;;;;;;6.10;2.67;;;4.90;99.90;;;;;;4965391;28;20051;-60
2024/01/02 11:26:40;;;;;;;5.35;2.47;;;4.90;99.90;;;;;;4965976;28;20776;-59
2024/01/02 11:29:15;;;;;;;9.50;2.50;;;4.90;99.90;;;;;;4965667;28;20042;-59
2024/01/02 11:31:44;;;;;;;4.10;2.42;;;4.90;99.90;;;;;;4973706;28;20567;-55
2024/01/02 11:34:22;;;;;;;5.97;2.67;;;4.90;99.90;;;;;;4973916;28;20045;-59
2024/01/02 11:36:55;;;;;;;5.22;2.60;;;5.00;99.90;;;;;;4973966;28;20369;-57
2024/01/02 11:39:50;;;;;;;5.03;3.00;;;5.00;99.90;;;;;;4965605;28;20049;-58
2024/01/02 11:42:24;;;;;;;4.50;3.03;;;5.00;99.90;;;;;;4966852;28;20047;-58
2024/01/02 11:45:21;;;;;;;5.85;2.42;;;5.10;99.90;;;;;;4967947;28;20042;-58
2024/01/02 11:48:04;;;;;;;7.80;3.10;;;5.20;99.90;;;;;;4952680;28;20051;-58
2024/01/02 11:50:46;;;;;;;8.35;3.15;;;5.30;99.90;;;;;;4968536;28;20103;-58
2024/01/02 11:53:37;;;;;;;8.23;3.30;;;5.40;99.90;;;;;;4964493;28;20497;-58
2024/01/02 11:56:07;;;;;;;5.03;2.50;;;5.40;99.90;;;;;;4938010;28;20515;-58
2024/01/02 11:58:49;;;;;;;6.30;2.83;;;5.40;99.90;;;;;;4966175;28;20129;-58
2024/01/02 12:01:25;;;;;;;5.05;2.10;;;5.50;99.90;;;;;;4965609;28;20078;-56
2024/01/02 12:03:57;;;;;;;10.02;2.72;;;5.60;99.90;;;;;;4965150;28;20049;-57
2024/01/02 12:06:34;;;;;;;8.88;4.03;;;5.70;99.90;;;;;;4963607;28;20560;-59
2024/01/02 12:09:16;;;;;;;5.37;2.90;;;5.50;99.90;;;;;;4960104;28;20418;-58
2024/01/02 12:11:48;;;;;;;6.40;2.42;;;5.50;99.90;;;;;;4961378;28;20065;-59
2024/01/02 12:14:36;;;;;;;5.25;2.30;;;5.50;99.90;;;;;;4962253;28;20039;-58
2024/01/02 12:17:05;;;;;;;6.13;2.97;;;5.60;99.90;;;;;;4965083;28;20503;-57
2024/01/02 12:19:52;;;;;;;8.23;2.45;;;5.60;99.90;;;;;;4961519;28;20298;-58
2024/01/02 12:22:20;;;;;;;4.10;2.17;;;5.50;99.90;;;;;;4969653;28;20062;-58
2024/01/02 12:24:50;;;;;;;8.00;2.42;;;5.60;99.90;;;;;;4966691;28;20138;-57
2024/01/02 12:27:20;;;;;;;5.50;1.92;;;5.80;99.90;;;;;;4972851;28;20038;-59
2024/01/02 12:29:51;;;;;;;4.80;2.55;;;5.90;99.90;;;;;;4972683;28;20042;-55
2024/01/02 12:32:27;;;;;;;10.75;3.33;;;5.90;99.90;;;;;;4967511;28;20102;-58
2024/01/02 12:35:09;;;;;;;6.13;2.83;;;6.00;99.90;;;;;;4963940;28;20043;-62
2024/01/02 12:37:42;;;;;;;9.32;2.97;;;5.90;99.90;;;;;;4963564;28;20054;-60
2024/01/02 12:40:10;;;;;;;12.02;2.50;;;5.90;99.90;;;;;;4960904;28;20042;-59
2024/01/02 12:42:41;;;;;;;7.43;2.50;;;6.00;99.90;;;;;;4973681;28;20130;-60
2024/01/02 12:45:12;;;;;;;12.50;2.28;;;6.00;99.90;;;;;;4970520;28;20043;-60
2024/01/02 12:47:42;;;;;;;9.13;2.20;;;6.10;99.90;;;;;;4968824;28;20074;-59
2024/01/02 12:50:12;;;;;;;8.63;2.50;;;6.10;99.90;;;;;;4967916;28;20051;-59
2024/01/02 12:52:47;;;;;;;12.65;6.00;;;6.10;99.90;;;;;;4961800;28;20054;-58
2024/01/02 12:55:17;;;;;;;10.02;4.15;;;6.10;99.90;;;;;;4964866;28;20130;-58
2024/01/02 12:57:47;;;;;;;12.70;3.85;;;6.10;99.90;;;;;;4963366;28;20055;-59
2024/01/02 13:00:17;;;;;;;8.73;3.03;;;6.10;99.90;;;;;;4964219;28;20035;-60
2024/01/02 13:02:44;;;;;;;8.75;3.42;;;6.10;99.90;;;;;;4964499;28;20046;-59
2024/01/02 13:05:12;;;;;;;6.43;2.78;;;6.20;99.90;;;;;;4968931;28;20079;-59
2024/01/02 13:07:41;;;;;;;10.75;4.60;;;6.20;99.90;;;;;;4952678;28;20344;-58
2024/01/02 13:10:09;;;;;;;13.38;4.38;;;6.10;99.90;;;;;;4952837;28;20126;-60